LEAB/ABC METAR and TAF weather

Enter ICAO airport designator
Station Type Date Time Source
LEAB METAR 2022/11/30 17:30 UTC NOAA

LEAB 301730Z 06002KT CAVOK 08/01 Q1015 NOSIG


Station Type Date Time Source
LEAB Decoded METAR 2022/11/30 17:30 UTC NOAA

Albacete / Los Llanos, Spain (LEAB) 38-57N 001-51W 704M
Nov 30, 2022 - 12:30 PM EST / 2022.11.30 1730 UTC
Wind: from the ENE (060 degrees) at 2 MPH (2 KT):0
Visibility: greater than 7 mile(s):0
Temperature: 46 F (8 C)
Dew Point: 33 F (1 C)
Relative Humidity: 61%
Pressure (altimeter): 29.97 in. Hg (1015 hPa)
ob: LEAB 301730Z 06002KT CAVOK 08/01 Q1015 NOSIG
cycle: 17

Station Type Date Time Source
LEAB TAF 2022/11/30 18:27 UTC NOAA

TAF LEAB 301700Z 3018/0118 VRB04KT CAVOK TX13/0114Z TN02/0106Z
BECMG 3018/3019 12007KT PROB40
TEMPO 0102/0109 1500 BR BCFG BKN005
BECMG 0110/0112 BKN012

Example: see airport list